Boardman, Ohio
Current Conditions -  °F | °C
As of 7:51 AM on Friday 19 Dec 2014 (Local Time) from KYNG Reporting Station
Light Snow Light Snow  
Wind Chill: 20°   Ceiling: 800
Heat Index: 28°   Visibility: 9mi
Dew Point: 26°   Wind: 8mph
Humidity: 92%   Direction: 300°WNW
Pressure: 30.18"   Gusts: NA
Location:  41.02°N, 80.66°W
Report Text: KYNG 191251Z 30007KT 9SM -SN BKN008 OVC016 M02/M03 A3018 RMK AO2 SNB20 SLP234 P0000 T10221033
Loading
Personal Weather Stations






























Interactive Weather Map New forecast layout! Learn more

10-Day Weather Forecast

Advertisements
Track Severe Weather on mobile